Weather at John Gonzales Field

Public forecast

Using degrees Fahrenheit for public forecast. Weather courtesy of forecast.io.

Closest aviation weather report (METAR) to John Gonzales Field

Closest report is Kingston Norman Rogers Airport, 14.2 nm (26.3 km) WNW.

2024/07/14 17:00 (retrieved 1 hour ago)

CYGK 141700Z 17009KT 15SM FEW025 BKN230 24/21 A3001 RMK CU1CI4 SLP165 DENSITY ALT 1400FT

Closest aviation forecast (TAF) to John Gonzales Field

Closest forecast is Kingston Norman Rogers Airport, 14.2 nm (26.3 km) WNW.

2024/07/14 14:42 (retrieved 3 hours ago)

TAF TAF CYGK 141340Z 1414/1502 18010KT P6SM SCT240 FM142300 18010KT P6SM BKN100 BKN250 BECMG 1423/1501 25012G22KT FM150100 25012G22KT P6SM -SHRA BKN025 RMK NXT FCST BY 142000Z